Time;durP1;ratioP1;P1;durP2;ratioP2;P2;SDS_P1;SDS_P2;PMS_P1;PMS_P2;Temp;Humidity;BMP_temperature;BMP_pressure;BME280_temperature;BME280_humidity;BME280_pressure;Samples;Min_cycle;Max_cycle;Signal;HPM_P1;HPM_P2
2022/04/14 00:01:11;;;;;;;38.95;17.27;;;12.00;99.90;;;;;;5032098;28;20033;-66
2022/04/14 00:03:36;;;;;;;55.50;14.52;;;11.90;99.90;;;;;;5030274;28;20107;-66
2022/04/14 00:06:02;;;;;;;16.98;13.07;;;11.80;99.90;;;;;;5032477;28;20021;-66
2022/04/14 00:08:27;;;;;;;16.05;11.55;;;11.80;99.90;;;;;;5036997;28;20345;-66
2022/04/14 00:10:53;;;;;;;30.55;11.52;;;11.70;99.90;;;;;;5035473;28;20021;-66
2022/04/14 00:13:18;;;;;;;31.38;10.85;;;11.70;99.90;;;;;;5037644;28;20100;-66
2022/04/14 00:15:44;;;;;;;54.50;10.70;;;11.80;99.90;;;;;;5031301;28;20068;-66
2022/04/14 00:18:09;;;;;;;41.38;12.48;;;11.70;99.90;;;;;;5038412;28;20381;-66
2022/04/14 00:20:35;;;;;;;36.30;11.65;;;11.70;99.90;;;;;;5030846;28;20030;-66
2022/04/14 00:23:00;;;;;;;31.95;10.82;;;11.60;99.90;;;;;;5029224;28;20053;-66
2022/04/14 00:25:26;;;;;;;24.17;9.90;;;11.60;99.90;;;;;;5049627;28;20032;-66
2022/04/14 00:27:51;;;;;;;25.73;10.27;;;11.60;99.90;;;;;;5049545;28;20461;-66
2022/04/14 00:30:17;;;;;;;55.22;12.20;;;11.60;99.90;;;;;;5049298;28;20092;-66
2022/04/14 00:32:42;;;;;;;30.33;12.93;;;11.60;99.90;;;;;;5031989;28;20026;-67
2022/04/14 00:35:08;;;;;;;20.02;13.13;;;11.50;99.90;;;;;;5037199;28;20037;-66
2022/04/14 00:37:33;;;;;;;28.13;13.15;;;11.50;99.90;;;;;;5030851;28;20017;-66
2022/04/14 00:39:59;;;;;;;40.42;15.30;;;11.50;99.90;;;;;;5030077;28;20030;-67
2022/04/14 00:42:24;;;;;;;41.05;28.27;;;11.50;99.90;;;;;;5040642;28;20469;-66
2022/04/14 00:44:50;;;;;;;68.32;29.05;;;11.50;99.90;;;;;;5029869;28;20359;-66
2022/04/14 00:47:16;;;;;;;38.67;21.00;;;11.50;99.90;;;;;;5034073;28;20531;-66
2022/04/14 00:49:42;;;;;;;76.00;18.75;;;11.50;99.90;;;;;;5030325;28;20025;-66
2022/04/14 00:52:08;;;;;;;76.10;17.05;;;11.50;99.90;;;;;;5027483;28;20040;-66
2022/04/14 00:54:34;;;;;;;43.22;15.63;;;11.50;99.90;;;;;;5030575;28;20389;-66
2022/04/14 00:57:01;;;;;;;30.40;19.23;;;11.50;99.90;;;;;;5034894;28;20036;-66
2022/04/14 00:59:27;;;;;;;86.60;22.40;;;11.50;99.90;;;;;;5030052;28;20389;-66
2022/04/14 01:01:53;;;;;;;53.00;23.65;;;11.50;99.90;;;;;;5031364;28;20028;-66
2022/04/14 01:04:19;;;;;;;45.58;21.35;;;11.50;99.90;;;;;;5034441;28;20029;-66
2022/04/14 01:06:45;;;;;;;53.35;20.20;;;11.50;99.90;;;;;;5029126;28;20160;-66
2022/04/14 01:09:21;;;;;;;71.07;23.85;;;11.50;99.90;;;;;;5032989;28;20021;-67
2022/04/14 01:11:52;;;;;;;54.53;24.55;;;11.50;99.90;;;;;;5034207;28;20032;-66
2022/04/14 01:14:20;;;;;;;45.40;22.73;;;11.50;99.90;;;;;;5027888;28;20037;-66
2022/04/14 01:16:45;;;;;;;35.25;20.15;;;11.40;99.90;;;;;;5034018;28;20055;-66
2022/04/14 01:19:11;;;;;;;38.50;20.35;;;11.50;99.90;;;;;;5039216;28;20480;-66
2022/04/14 01:21:41;;;;;;;41.47;20.05;;;11.50;99.90;;;;;;5033626;28;20013;-66
2022/04/14 01:24:07;;;;;;;31.83;19.13;;;11.50;99.90;;;;;;5035916;28;20116;-66
2022/04/14 01:26:36;;;;;;;30.63;21.10;;;11.50;99.90;;;;;;5031629;28;20025;-66
2022/04/14 01:29:03;;;;;;;28.13;18.48;;;11.40;99.90;;;;;;5034602;28;20035;-66
2022/04/14 01:31:29;;;;;;;36.50;18.77;;;11.40;99.90;;;;;;5033080;28;20036;-66
2022/04/14 01:33:54;;;;;;;41.53;18.60;;;11.30;99.90;;;;;;5043631;28;20029;-66
2022/04/14 01:36:20;;;;;;;34.60;19.35;;;11.30;99.90;;;;;;5049100;28;20070;-66
2022/04/14 01:38:46;;;;;;;38.67;21.90;;;11.30;99.90;;;;;;5037087;28;20076;-66
2022/04/14 01:41:11;;;;;;;50.00;26.15;;;11.20;99.90;;;;;;5031584;28;20028;-66
2022/04/14 01:43:36;;;;;;;47.33;24.13;;;11.20;99.90;;;;;;5037629;28;20591;-66
2022/04/14 01:46:08;;;;;;;48.40;22.85;;;11.20;99.90;;;;;;5036414;28;20053;-66
2022/04/14 01:48:38;;;;;;;35.80;23.63;;;11.10;99.90;;;;;;5036169;28;20024;-66
2022/04/14 01:51:04;;;;;;;;;;;11.00;99.90;;;;;;5033833;28;20025;-66
2022/04/14 01:53:29;;;;;;;25.70;20.08;;;11.00;99.90;;;;;;5051464;28;19912;-65
2022/04/14 01:55:55;;;;;;;44.22;19.83;;;11.00;99.90;;;;;;5030837;28;20456;-66
2022/04/14 01:58:20;;;;;;;21.92;17.98;;;11.00;99.90;;;;;;5034784;28;20469;-66
2022/04/14 02:00:46;;;;;;;32.38;19.70;;;11.00;99.90;;;;;;5029679;28;20017;-65
2022/04/14 02:03:11;;;;;;;34.72;18.40;;;11.10;99.90;;;;;;5030744;28;20053;-66
2022/04/14 02:05:37;;;;;;;27.67;18.67;;;11.10;99.90;;;;;;5037211;28;20481;-66
2022/04/14 02:08:02;;;;;;;25.52;18.60;;;11.10;99.90;;;;;;5032987;28;20471;-66
2022/04/14 02:10:28;;;;;;;30.80;18.10;;;11.20;99.90;;;;;;5033556;28;20033;-66
2022/04/14 02:12:53;;;;;;;32.47;19.83;;;11.20;99.90;;;;;;5036185;28;20025;-66
2022/04/14 02:15:19;;;;;;;33.05;21.85;;;11.20;99.90;;;;;;5026787;28;20021;-66
2022/04/14 02:17:45;;;;;;;36.30;24.83;;;11.20;99.90;;;;;;5036578;28;20484;-66
2022/04/14 02:20:10;;;;;;;51.95;27.23;;;11.20;99.90;;;;;;5027722;28;20018;-65
2022/04/14 02:22:40;;;;;;;36.05;22.92;;;11.10;99.90;;;;;;5036353;28;20482;-66
2022/04/14 02:25:06;;;;;;;;;;;11.10;99.90;;;;;;5034073;28;20064;-67
2022/04/14 02:27:32;;;;;;;31.58;18.15;;;11.00;99.90;;;;;;5034276;28;19959;-65
2022/04/14 02:29:57;;;;;;;36.75;17.27;;;11.00;99.90;;;;;;5036948;28;20529;-66
2022/04/14 02:32:23;;;;;;;20.23;16.52;;;11.10;99.90;;;;;;5036917;28;20493;-66
2022/04/14 02:34:48;;;;;;;22.05;16.75;;;11.10;99.90;;;;;;5036728;28;20034;-67
2022/04/14 02:37:14;;;;;;;22.63;17.60;;;11.10;99.90;;;;;;5015963;28;20033;-67
2022/04/14 02:39:39;;;;;;;22.00;16.92;;;11.10;99.90;;;;;;5039386;28;20021;-66
2022/04/14 02:42:05;;;;;;;34.30;17.88;;;11.10;99.90;;;;;;5035193;28;20416;-66
2022/04/14 02:44:31;;;;;;;39.58;20.35;;;11.10;99.90;;;;;;5031137;28;20106;-66
2022/04/14 02:46:56;;;;;;;26.20;22.52;;;11.10;99.90;;;;;;5034574;28;20480;-67
2022/04/14 02:49:23;;;;;;;40.17;23.73;;;11.10;99.90;;;;;;5038737;28;20161;-67
2022/04/14 02:51:49;;;;;;;38.70;22.85;;;10.90;99.90;;;;;;5039385;28;20067;-67
2022/04/14 02:54:14;;;;;;;47.85;20.88;;;10.80;99.90;;;;;;5033505;28;20032;-66
2022/04/14 02:56:40;;;;;;;37.33;22.05;;;10.80;99.90;;;;;;5031056;28;20014;-67
2022/04/14 02:59:05;;;;;;;33.17;22.73;;;10.80;99.90;;;;;;5043671;28;20484;-67
2022/04/14 03:01:31;;;;;;;28.45;21.15;;;10.80;99.90;;;;;;5040110;28;20036;-66
2022/04/14 03:03:56;;;;;;;28.33;17.95;;;10.80;99.90;;;;;;5034027;28;20385;-67
2022/04/14 03:06:22;;;;;;;18.60;16.58;;;10.80;99.90;;;;;;5035668;28;20025;-67
2022/04/14 03:08:48;;;;;;;20.02;17.08;;;10.80;99.90;;;;;;5035746;28;20500;-66
2022/04/14 03:11:13;;;;;;;20.08;15.40;;;10.90;99.90;;;;;;5033943;28;20026;-66
2022/04/14 03:13:41;;;;;;;16.98;15.13;;;10.90;99.90;;;;;;5040671;28;20078;-66
2022/04/14 03:16:07;;;;;;;25.52;15.25;;;11.00;99.90;;;;;;5033465;28;20017;-67
2022/04/14 03:18:33;;;;;;;23.00;14.02;;;10.90;99.90;;;;;;5038723;28;20496;-67
2022/04/14 03:20:58;;;;;;;15.50;13.90;;;10.90;99.90;;;;;;5036184;28;20025;-66
2022/04/14 03:23:24;;;;;;;16.83;13.40;;;10.90;99.90;;;;;;5037398;28;20516;-66
2022/04/14 03:25:50;;;;;;;39.65;12.93;;;10.90;99.90;;;;;;5034355;28;20030;-66
2022/04/14 03:28:15;;;;;;;20.55;13.02;;;10.90;99.90;;;;;;5034768;28;20116;-67
2022/04/14 03:30:41;;;;;;;29.75;12.32;;;10.90;99.90;;;;;;5033929;28;20060;-67
2022/04/14 03:33:06;;;;;;;25.45;11.00;;;10.80;99.90;;;;;;5036395;28;20115;-66
2022/04/14 03:35:32;;;;;;;27.33;8.98;;;10.80;99.90;;;;;;5034142;28;20031;-67
2022/04/14 03:37:58;;;;;;;20.45;8.95;;;10.70;99.90;;;;;;5032794;28;20044;-67
2022/04/14 03:40:23;;;;;;;12.38;8.73;;;10.60;99.90;;;;;;5032184;28;20104;-67
2022/04/14 03:42:49;;;;;;;21.70;8.15;;;10.60;99.90;;;;;;5053956;28;20162;-67
2022/04/14 03:45:14;;;;;;;11.80;7.20;;;10.60;99.90;;;;;;5032920;28;20076;-67
2022/04/14 03:47:39;;;;;;;8.98;7.78;;;10.50;99.90;;;;;;5038027;28;20390;-66
2022/04/14 03:50:05;;;;;;;11.13;6.93;;;10.50;99.90;;;;;;5036972;28;20021;-67
2022/04/14 03:52:31;;;;;;;34.50;7.43;;;10.50;99.90;;;;;;5033934;28;20029;-67
2022/04/14 03:54:57;;;;;;;32.30;7.78;;;10.50;99.90;;;;;;5031025;28;20025;-67
2022/04/14 03:57:23;;;;;;;24.73;6.93;;;10.50;99.90;;;;;;5031237;28;20143;-67
2022/04/14 03:59:49;;;;;;;34.85;7.43;;;10.40;99.90;;;;;;5036614;28;20020;-67
2022/04/14 04:02:15;;;;;;;28.48;6.20;;;10.40;99.90;;;;;;5037765;28;20037;-67
2022/04/14 04:04:40;;;;;;;34.90;6.20;;;10.40;99.90;;;;;;5032449;28;20029;-67
2022/04/14 04:07:06;;;;;;;24.77;5.10;;;10.40;99.90;;;;;;5035352;28;20028;-67
2022/04/14 04:09:35;;;;;;;13.50;5.13;;;10.30;99.90;;;;;;5040207;28;20029;-67
2022/04/14 04:12:01;;;;;;;15.85;7.68;;;10.30;99.90;;;;;;5035139;28;20021;-67
2022/04/14 04:14:26;;;;;;;15.10;8.32;;;10.20;99.90;;;;;;5032147;28;20022;-67
2022/04/14 04:16:52;;;;;;;38.97;8.15;;;9.90;99.90;;;;;;5032162;28;20164;-67
2022/04/14 04:19:17;;;;;;;35.25;7.45;;;9.80;99.90;;;;;;5035322;28;20021;-67
2022/04/14 04:21:43;;;;;;;41.65;7.65;;;9.80;99.90;;;;;;5037154;28;20038;-66
2022/04/14 04:24:08;;;;;;;28.25;7.00;;;9.70;99.90;;;;;;5037370;28;20409;-67
2022/04/14 04:26:34;;;;;;;27.40;7.72;;;9.70;99.90;;;;;;5031852;28;20035;-66
2022/04/14 04:28:59;;;;;;;27.92;7.60;;;9.70;99.90;;;;;;5037831;28;20045;-66
2022/04/14 04:31:25;;;;;;;23.92;7.82;;;9.70;99.90;;;;;;5037375;28;20484;-67
2022/04/14 04:33:51;;;;;;;22.00;8.50;;;9.70;99.90;;;;;;5031807;28;20389;-67
2022/04/14 04:36:20;;;;;;;21.27;13.18;;;9.80;99.90;;;;;;5035767;28;20036;-66
2022/04/14 04:38:46;;;;;;;19.70;12.57;;;9.70;99.90;;;;;;5033455;28;20116;-67
2022/04/14 04:41:11;;;;;;;16.48;13.10;;;9.60;99.90;;;;;;5041369;28;20611;-66
2022/04/14 04:43:37;;;;;;;17.13;11.93;;;9.40;99.90;;;;;;5037589;28;20029;-66
2022/04/14 04:46:03;;;;;;;14.57;13.13;;;9.30;99.90;;;;;;5036546;28;20036;-67
2022/04/14 04:48:28;;;;;;;15.90;13.60;;;9.20;99.90;;;;;;5032839;28;20056;-67
2022/04/14 04:50:54;;;;;;;13.82;10.70;;;9.10;99.90;;;;;;5032263;28;20037;-68
2022/04/14 04:53:20;;;;;;;13.07;9.90;;;9.00;99.90;;;;;;5034182;28;20495;-67
2022/04/14 04:55:45;;;;;;;11.45;9.75;;;9.00;99.90;;;;;;5031809;28;20461;-67
2022/04/14 04:58:11;;;;;;;17.77;8.68;;;9.00;99.90;;;;;;5029773;28;20504;-67
2022/04/14 05:00:37;;;;;;;10.45;8.20;;;9.10;99.90;;;;;;5049306;28;20021;-67
2022/04/14 05:03:11;;;;;;;13.13;8.52;;;9.10;99.90;;;;;;5041236;28;20065;-67
2022/04/14 05:05:37;;;;;;;26.23;9.52;;;9.10;99.90;;;;;;5032088;28;20033;-67
2022/04/14 05:08:05;;;;;;;13.52;11.23;;;9.10;99.90;;;;;;5047118;28;20071;-67
2022/04/14 05:10:31;;;;;;;20.60;10.43;;;9.20;99.90;;;;;;5032005;28;20029;-67
2022/04/14 05:12:56;;;;;;;14.65;11.68;;;9.20;99.90;;;;;;5046731;28;20025;-67
2022/04/14 05:15:22;;;;;;;17.27;10.50;;;9.20;99.90;;;;;;5031957;28;20057;-67
2022/04/14 05:17:47;;;;;;;18.67;11.38;;;9.20;99.90;;;;;;5031857;28;20391;-67
2022/04/14 05:20:13;;;;;;;21.52;11.82;;;9.20;99.90;;;;;;5032074;28;20053;-67
2022/04/14 05:22:38;;;;;;;27.52;10.18;;;9.20;99.90;;;;;;5032163;28;20049;-67
2022/04/14 05:25:04;;;;;;;13.63;9.30;;;9.20;99.90;;;;;;5032181;28;20037;-66
2022/04/14 05:27:30;;;;;;;14.60;9.25;;;9.20;99.90;;;;;;5032388;28;20030;-67
2022/04/14 05:29:55;;;;;;;14.75;9.35;;;9.20;99.90;;;;;;5031232;28;20564;-67
2022/04/14 05:32:21;;;;;;;11.02;8.80;;;9.20;99.90;;;;;;5032251;28;20040;-67
2022/04/14 05:34:46;;;;;;;16.00;12.20;;;9.20;99.90;;;;;;5036918;28;20365;-67
2022/04/14 05:37:12;;;;;;;16.55;12.52;;;9.10;99.90;;;;;;5052070;28;20021;-67
2022/04/14 05:39:37;;;;;;;13.60;12.30;;;9.00;99.90;;;;;;5050871;28;20381;-66
2022/04/14 05:42:03;;;;;;;21.88;11.55;;;9.00;99.90;;;;;;5051735;28;20076;-67
2022/04/14 05:44:29;;;;;;;17.50;15.15;;;9.00;99.90;;;;;;5051861;28;20037;-67
2022/04/14 05:46:54;;;;;;;20.52;15.95;;;8.90;99.90;;;;;;5050786;28;20079;-66
2022/04/14 05:49:20;;;;;;;23.23;14.90;;;8.80;99.90;;;;;;5051994;28;20025;-67
2022/04/14 05:51:46;;;;;;;18.27;16.55;;;8.80;99.90;;;;;;5037675;28;20464;-67
2022/04/14 05:54:12;;;;;;;20.30;16.08;;;8.70;99.90;;;;;;5032207;28;20033;-67
2022/04/14 05:56:37;;;;;;;19.92;15.43;;;8.70;99.90;;;;;;5031824;28;20120;-65
2022/04/14 05:59:03;;;;;;;19.48;17.48;;;8.70;99.90;;;;;;5034143;28;20033;-66
2022/04/14 06:01:28;;;;;;;18.92;17.00;;;8.70;99.90;;;;;;5039562;28;20029;-67
2022/04/14 06:03:54;;;;;;;19.90;17.27;;;8.70;99.90;;;;;;5042434;28;20022;-66
2022/04/14 06:06:19;;;;;;;19.58;16.90;;;8.80;99.90;;;;;;5040089;28;20071;-66
2022/04/14 06:08:46;;;;;;;16.02;14.07;;;8.80;99.90;;;;;;5035215;28;20029;-66
2022/04/14 06:11:11;;;;;;;14.80;12.75;;;8.90;99.90;;;;;;5035584;28;20116;-67
2022/04/14 06:13:37;;;;;;;14.77;13.02;;;9.00;99.90;;;;;;5050972;28;20108;-65
2022/04/14 06:16:03;;;;;;;22.33;18.70;;;9.10;99.90;;;;;;5035724;28;20477;-67
2022/04/14 06:18:28;;;;;;;25.00;22.40;;;9.20;99.90;;;;;;5041280;28;20510;-66
2022/04/14 06:20:54;;;;;;;25.38;21.30;;;9.20;99.90;;;;;;5050267;28;20047;-67
2022/04/14 06:23:20;;;;;;;27.60;23.23;;;9.30;99.90;;;;;;5055144;28;20076;-66
2022/04/14 06:25:49;;;;;;;24.42;21.80;;;9.30;99.90;;;;;;5055081;28;20040;-67
2022/04/14 06:28:18;;;;;;;25.80;22.07;;;9.40;99.90;;;;;;5051499;28;20035;-67
2022/04/14 06:30:50;;;;;;;26.65;23.42;;;9.40;99.90;;;;;;5048742;28;20032;-67
2022/04/14 06:33:16;;;;;;;25.23;22.48;;;9.40;99.90;;;;;;5053597;28;20099;-67
2022/04/14 06:35:42;;;;;;;23.48;20.70;;;9.50;99.90;;;;;;5053545;28;20028;-67
2022/04/14 06:38:08;;;;;;;27.48;23.08;;;9.50;99.90;;;;;;5035906;28;20025;-67
2022/04/14 06:40:34;;;;;;;28.98;23.08;;;9.60;99.90;;;;;;5049601;28;20033;-67
2022/04/14 06:43:00;;;;;;;27.98;24.95;;;9.60;99.90;;;;;;5053715;28;20021;-67
2022/04/14 06:45:25;;;;;;;26.90;23.80;;;9.70;99.90;;;;;;5046400;28;20421;-67
2022/04/14 06:47:52;;;;;;;24.05;20.85;;;9.70;99.90;;;;;;5035110;28;20049;-66
2022/04/14 06:50:17;;;;;;;23.95;21.20;;;9.80;99.90;;;;;;5036549;28;20017;-67
2022/04/14 06:52:43;;;;;;;26.30;21.80;;;9.90;99.90;;;;;;5053628;28;20047;-66
2022/04/14 06:55:09;;;;;;;30.45;26.38;;;10.00;99.90;;;;;;5054741;28;20396;-67
2022/04/14 06:57:34;;;;;;;24.25;21.65;;;10.00;99.90;;;;;;5053276;28;20110;-66
2022/04/14 07:00:00;;;;;;;32.20;26.33;;;10.20;99.90;;;;;;5054678;28;20021;-67
2022/04/14 07:02:25;;;;;;;29.55;23.88;;;10.30;99.90;;;;;;5054211;28;20029;-66
2022/04/14 07:04:51;;;;;;;28.80;23.80;;;10.40;99.90;;;;;;5054594;28;20035;-67
2022/04/14 07:07:16;;;;;;;33.25;26.90;;;10.50;99.90;;;;;;5054538;28;20082;-67
2022/04/14 07:09:42;;;;;;;30.02;24.50;;;10.50;99.90;;;;;;5053956;28;20096;-66
2022/04/14 07:12:08;;;;;;;29.00;24.55;;;10.70;99.90;;;;;;5053375;28;20407;-66
2022/04/14 07:14:34;;;;;;;30.30;25.02;;;10.80;99.90;;;;;;5054078;28;20025;-67
2022/04/14 07:17:00;;;;;;;25.73;21.35;;;10.90;99.90;;;;;;5054251;28;20046;-65
2022/04/14 07:19:26;;;;;;;25.35;19.23;;;11.00;99.90;;;;;;5054107;28;20029;-67
2022/04/14 07:21:52;;;;;;;26.83;22.20;;;11.10;99.90;;;;;;5053984;28;20045;-65
2022/04/14 07:24:18;;;;;;;25.35;20.88;;;11.20;99.90;;;;;;5053883;28;20043;-67
2022/04/14 07:26:44;;;;;;;23.60;19.65;;;11.30;99.90;;;;;;5054184;28;20021;-67
2022/04/14 07:29:10;;;;;;;23.23;19.10;;;11.40;99.90;;;;;;5053576;28;20029;-67
2022/04/14 07:31:36;;;;;;;22.42;18.98;;;11.50;99.90;;;;;;5053829;28;20029;-67
2022/04/14 07:34:05;;;;;;;22.92;18.65;;;11.60;99.90;;;;;;5053818;28;20496;-67
2022/04/14 07:36:31;;;;;;;24.37;19.27;;;11.70;99.90;;;;;;5053992;28;20029;-67
2022/04/14 07:38:56;;;;;;;22.73;19.05;;;11.80;99.90;;;;;;5054098;28;20098;-67
2022/04/14 07:41:22;;;;;;;22.67;17.45;;;11.80;99.90;;;;;;5053748;28;20021;-67
2022/04/14 07:43:47;;;;;;;24.13;18.23;;;11.90;99.90;;;;;;5053776;28;20036;-67
2022/04/14 07:46:13;;;;;;;20.75;17.08;;;12.00;99.90;;;;;;5053568;28;20056;-67
2022/04/14 07:48:38;;;;;;;19.08;17.08;;;12.10;99.90;;;;;;5053662;28;20051;-67
2022/04/14 07:51:04;;;;;;;20.90;17.17;;;12.20;99.90;;;;;;5053262;28;20040;-67
2022/04/14 07:53:30;;;;;;;21.00;17.77;;;12.30;99.90;;;;;;5053120;28;20033;-66
2022/04/14 07:55:56;;;;;;;18.70;15.95;;;12.30;99.90;;;;;;5052425;28;20025;-67
2022/04/14 07:58:22;;;;;;;22.08;16.33;;;12.40;99.90;;;;;;5051351;28;20086;-67
2022/04/14 08:00:50;;;;;;;19.05;16.17;;;12.50;99.90;;;;;;5049083;28;20385;-67
2022/04/14 08:03:16;;;;;;;17.75;15.23;;;12.60;99.90;;;;;;5048821;28;20022;-67
2022/04/14 08:05:44;;;;;;;17.80;13.82;;;12.60;99.90;;;;;;5051745;28;20044;-67
2022/04/14 08:08:18;;;;;;;15.85;14.18;;;12.70;99.90;;;;;;5051674;28;20017;-67
2022/04/14 08:10:46;;;;;;;14.45;12.65;;;12.80;99.90;;;;;;5041030;28;20079;-66
2022/04/14 08:13:13;;;;;;;15.90;14.05;;;12.90;99.90;;;;;;5049244;28;20052;-67
2022/04/14 08:15:39;;;;;;;18.08;14.23;;;12.90;99.90;;;;;;5052623;28;20587;-66
2022/04/14 08:18:08;;;;;;;19.00;15.00;;;13.00;99.90;;;;;;5051534;28;20384;-67
2022/04/14 08:20:35;;;;;;;19.23;15.60;;;13.10;99.90;;;;;;5048150;28;20017;-67
2022/04/14 08:23:02;;;;;;;19.80;17.20;;;13.10;99.90;;;;;;5049573;28;20044;-67
2022/04/14 08:25:35;;;;;;;18.33;15.55;;;13.20;99.90;;;;;;5052813;28;20381;-67
2022/04/14 08:28:03;;;;;;;17.30;15.48;;;13.30;99.90;;;;;;5053196;28;20021;-67
2022/04/14 08:30:30;;;;;;;20.75;15.70;;;13.40;99.90;;;;;;5052855;28;20029;-67
2022/04/14 08:32:59;;;;;;;17.85;13.93;;;13.40;99.90;;;;;;5052773;28;20020;-66
2022/04/14 08:35:26;;;;;;;17.23;14.38;;;13.50;99.90;;;;;;5052105;28;20495;-67
2022/04/14 08:37:51;;;;;;;15.43;12.90;;;13.60;99.90;;;;;;5053010;28;20465;-67
2022/04/14 08:40:21;;;;;;;16.40;12.90;;;13.80;99.90;;;;;;5052886;28;20025;-67
2022/04/14 08:43:15;;;;;;;15.35;12.45;;;13.90;99.90;;;;;;5052693;28;20111;-67
2022/04/14 08:45:46;;;;;;;15.07;11.98;;;14.00;99.90;;;;;;5051644;28;20029;-67
2022/04/14 08:48:13;;;;;;;15.57;12.95;;;14.10;99.90;;;;;;5050919;28;20017;-67
2022/04/14 08:50:41;;;;;;;15.73;12.48;;;14.20;99.90;;;;;;5052699;28;20036;-67
2022/04/14 08:53:07;;;;;;;13.05;10.73;;;14.30;99.90;;;;;;5052192;28;20032;-67
2022/04/14 08:55:33;;;;;;;14.73;11.48;;;14.40;99.90;;;;;;5052049;28;20021;-67
2022/04/14 08:57:59;;;;;;;11.60;9.23;;;14.50;99.90;;;;;;5052296;28;20021;-67
2022/04/14 09:00:26;;;;;;;11.95;9.30;;;14.60;99.90;;;;;;5051183;28;20134;-67
2022/04/14 09:02:54;;;;;;;12.25;9.23;;;14.60;99.90;;;;;;5052513;28;20044;-66
2022/04/14 09:05:19;;;;;;;11.90;9.00;;;14.70;99.90;;;;;;5051822;28;20032;-66
2022/04/14 09:07:49;;;;;;;11.27;9.00;;;14.80;99.90;;;;;;5049424;28;20021;-66
2022/04/14 09:10:15;;;;;;;10.20;8.93;;;14.90;99.90;;;;;;5052171;28;20021;-66
2022/04/14 09:12:41;;;;;;;11.13;9.13;;;15.00;99.90;;;;;;5051311;28;20036;-67
2022/04/14 09:15:07;;;;;;;12.70;9.13;;;15.00;99.90;;;;;;5051463;28;20378;-67
2022/04/14 09:17:33;;;;;;;13.13;8.55;;;15.10;99.90;;;;;;5051272;28;20033;-67
2022/04/14 09:19:58;;;;;;;9.77;7.75;;;15.20;99.90;;;;;;5052347;28;20025;-67
2022/04/14 09:22:24;;;;;;;8.93;7.10;;;15.30;99.90;;;;;;5051959;28;20401;-66
2022/04/14 09:24:52;;;;;;;8.73;7.13;;;15.30;99.90;;;;;;5050790;28;20029;-66
2022/04/14 09:27:39;;;;;;;9.48;6.82;;;15.40;99.90;;;;;;5045381;28;20076;-67
2022/04/14 09:30:07;;;;;;;10.23;6.45;;;15.50;99.90;;;;;;5051462;28;20074;-66
2022/04/14 09:32:44;;;;;;;11.10;6.25;;;15.50;99.90;;;;;;5051926;28;20468;-67
2022/04/14 09:35:16;;;;;;;9.10;5.43;;;15.60;99.90;;;;;;5051243;28;20042;-66
2022/04/14 09:37:42;;;;;;;7.50;5.65;;;15.80;99.90;;;;;;5051765;28;20072;-66
2022/04/14 09:40:09;;;;;;;6.28;5.22;;;15.80;99.30;;;;;;5050562;28;20495;-66
2022/04/14 09:42:49;;;;;;;9.25;5.90;;;15.90;99.00;;;;;;5051335;28;20469;-67
2022/04/14 09:45:25;;;;;;;8.43;5.15;;;16.00;98.60;;;;;;5047817;28;20484;-67
2022/04/14 09:47:53;;;;;;;9.35;4.95;;;16.10;98.50;;;;;;5050907;28;20028;-67
2022/04/14 09:50:35;;;;;;;7.60;4.45;;;16.20;97.90;;;;;;5049948;28;20024;-67
2022/04/14 09:53:08;;;;;;;6.63;4.32;;;16.30;97.00;;;;;;5051274;28;20116;-67
2022/04/14 09:55:35;;;;;;;8.95;4.93;;;16.30;96.50;;;;;;5051381;28;20032;-67
2022/04/14 09:58:10;;;;;;;6.88;5.40;;;16.40;96.10;;;;;;5051603;28;20020;-67
2022/04/14 10:00:55;;;;;;;7.45;3.83;;;16.50;95.70;;;;;;5050514;28;20082;-67
2022/04/14 10:03:23;;;;;;;6.82;4.28;;;16.60;95.40;;;;;;5051671;28;20489;-66
2022/04/14 10:05:51;;;;;;;6.82;5.80;;;16.70;95.30;;;;;;5051204;28;20512;-66
2022/04/14 10:08:17;;;;;;;10.00;5.28;;;16.80;94.70;;;;;;5050250;28;20025;-66
2022/04/14 10:10:44;;;;;;;6.35;4.50;;;16.90;94.20;;;;;;5050815;28;20033;-66
2022/04/14 10:13:12;;;;;;;7.43;4.30;;;17.00;93.70;;;;;;5051327;28;20476;-66
2022/04/14 10:15:40;;;;;;;8.38;5.10;;;17.10;93.30;;;;;;5051715;28;20075;-66
2022/04/14 10:18:10;;;;;;;6.15;4.75;;;17.30;93.10;;;;;;5051591;28;20032;-66
2022/04/14 10:20:37;;;;;;;9.32;5.30;;;17.40;92.80;;;;;;5051561;28;20021;-65
2022/04/14 10:23:04;;;;;;;9.48;5.90;;;17.60;92.70;;;;;;5051369;28;20052;-65
2022/04/14 10:25:30;;;;;;;7.45;5.60;;;17.70;92.30;;;;;;5051312;28;20025;-65
2022/04/14 10:28:00;;;;;;;10.07;6.93;;;17.90;92.20;;;;;;5051703;28;20025;-66
2022/04/14 10:30:26;;;;;;;10.23;6.90;;;18.00;92.10;;;;;;5051753;28;20092;-66
2022/04/14 10:32:55;;;;;;;8.20;6.47;;;18.30;91.90;;;;;;5051392;28;20073;-66
2022/04/14 10:35:23;;;;;;;8.23;6.15;;;18.50;91.60;;;;;;5051032;28;20082;-66
2022/04/14 10:38:11;;;;;;;9.45;6.32;;;18.60;91.10;;;;;;5050441;28;20025;-66
2022/04/14 10:40:42;;;;;;;10.98;6.15;;;18.90;90.40;;;;;;5050963;28;20056;-66
2022/04/14 10:43:09;;;;;;;8.55;5.20;;;19.20;90.00;;;;;;5051058;28;20025;-65
2022/04/14 10:45:57;;;;;;;7.75;5.03;;;19.30;87.00;;;;;;5046587;28;21333;-66
2022/04/14 10:48:40;;;;;;;6.97;5.82;;;19.50;85.00;;;;;;5051972;28;20083;-66
2022/04/14 10:51:23;;;;;;;8.98;6.68;;;19.70;84.60;;;;;;5050898;28;20355;-66
2022/04/14 10:54:00;;;;;;;7.57;5.00;;;19.90;83.80;;;;;;5047669;28;20124;-66
2022/04/14 10:56:41;;;;;;;5.75;4.22;;;20.10;84.10;;;;;;5050382;28;20025;-67
2022/04/14 10:59:09;;;;;;;9.02;4.13;;;20.50;84.80;;;;;;5048039;28;20021;-66
2022/04/14 11:01:47;;;;;;;5.50;3.22;;;20.90;84.40;;;;;;5048193;28;20028;-67
2022/04/14 11:04:35;;;;;;;5.03;3.22;;;22.00;84.30;;;;;;5048670;28;20025;-67
2022/04/14 11:07:16;;;;;;;10.13;4.13;;;23.60;78.40;;;;;;5049573;28;20071;-67
2022/04/14 11:09:47;;;;;;;6.28;4.38;;;24.60;69.40;;;;;;5050626;28;20024;-67
2022/04/14 11:12:19;;;;;;;6.55;4.03;;;25.20;66.30;;;;;;5050699;28;20017;-67
2022/04/14 11:15:01;;;;;;;5.25;3.40;;;26.00;64.70;;;;;;5051178;28;20485;-67
2022/04/14 11:17:48;;;;;;;6.00;3.90;;;27.00;62.40;;;;;;5036429;28;20018;-67
2022/04/14 11:20:21;;;;;;;5.88;3.50;;;28.00;56.40;;;;;;5034565;28;20033;-66
2022/04/14 11:23:08;;;;;;;5.90;3.45;;;28.30;55.10;;;;;;5039204;28;20120;-66
2022/04/14 11:25:40;;;;;;;5.88;3.20;;;28.30;53.70;;;;;;5049062;28;20111;-67
2022/04/14 11:28:20;;;;;;;5.15;4.03;;;28.20;53.70;;;;;;5052539;28;20024;-67
2022/04/14 11:30:47;;;;;;;5.32;3.13;;;28.10;52.70;;;;;;5050041;28;20151;-66
2022/04/14 11:33:31;;;;;;;4.97;3.22;;;28.00;53.50;;;;;;5052539;28;20021;-67
2022/04/14 11:36:18;;;;;;;5.82;3.47;;;27.70;53.20;;;;;;5037907;28;20028;-67
2022/04/14 11:39:17;;;;;;;4.25;2.65;;;27.40;53.10;;;;;;5032525;28;20249;-67
2022/04/14 11:41:49;;;;;;;5.47;3.13;;;27.80;53.80;;;;;;5040993;28;20033;-67
2022/04/14 11:44:21;;;;;;;4.93;3.33;;;27.70;52.40;;;;;;5040431;28;20422;-67
2022/04/14 11:46:55;;;;;;;4.30;2.83;;;28.60;51.40;;;;;;5047702;28;20095;-67
2022/04/14 11:49:21;;;;;;;5.38;2.85;;;29.20;49.60;;;;;;5046344;28;20017;-67
2022/04/14 11:51:54;;;;;;;3.72;3.17;;;29.10;49.10;;;;;;5048520;28;20033;-67
2022/04/14 11:54:37;;;;;;;5.80;2.90;;;29.30;49.20;;;;;;5040995;28;20029;-67
2022/04/14 11:57:07;;;;;;;5.28;2.88;;;30.00;48.00;;;;;;5044720;28;20096;-67
2022/04/14 11:59:46;;;;;;;5.28;2.78;;;30.40;47.40;;;;;;5043050;28;20017;-68
2022/04/14 12:02:18;;;;;;;6.30;3.35;;;30.00;46.80;;;;;;5052720;28;20025;-67
2022/04/14 12:04:49;;;;;;;4.28;2.63;;;29.50;46.40;;;;;;5053336;28;20025;-68
2022/04/14 12:07:16;;;;;;;6.38;2.90;;;28.60;47.00;;;;;;5046566;28;20186;-68
2022/04/14 12:09:42;;;;;;;4.80;3.28;;;28.00;48.00;;;;;;5045237;28;20057;-67
2022/04/14 12:12:12;;;;;;;3.58;2.30;;;27.40;48.80;;;;;;5053806;28;20055;-67
2022/04/14 12:14:44;;;;;;;5.93;3.08;;;27.00;50.50;;;;;;5060878;28;20033;-67
2022/04/14 12:17:10;;;;;;;4.18;3.28;;;26.60;49.90;;;;;;5061893;28;20032;-67
2022/04/14 12:19:43;;;;;;;4.70;2.75;;;26.30;50.40;;;;;;5058864;28;20021;-67
2022/04/14 12:22:10;;;;;;;3.72;3.28;;;25.90;50.70;;;;;;5068753;28;20041;-67
2022/04/14 12:24:35;;;;;;;4.95;2.83;;;25.90;51.30;;;;;;5057549;28;20028;-67
2022/04/14 12:27:01;;;;;;;5.15;2.83;;;26.00;51.80;;;;;;5063738;28;20033;-67
2022/04/14 12:29:27;;;;;;;3.78;2.38;;;26.10;51.80;;;;;;5047967;28;20033;-67
2022/04/14 12:32:09;;;;;;;4.13;2.53;;;26.20;50.30;;;;;;5067519;28;20032;-67
2022/04/14 12:34:35;;;;;;;3.40;2.30;;;26.50;50.90;;;;;;5038342;28;20032;-67
2022/04/14 12:37:08;;;;;;;3.00;1.67;;;26.70;50.50;;;;;;5060752;28;20020;-67
2022/04/14 12:39:34;;;;;;;3.45;1.65;;;26.80;50.10;;;;;;5058657;28;20028;-67